sensor_id;sensor_type;location;lat;lon;timestamp;temperature;humidity
27759;DHT22;15148;48.972;12.794;2023-12-14T00:00:57;2.80;99.90
27759;DHT22;15148;48.972;12.794;2023-12-14T00:06:00;2.80;99.90
27759;DHT22;15148;48.972;12.794;2023-12-14T00:11:09;2.90;99.90
27759;DHT22;15148;48.972;12.794;2023-12-14T00:16:11;2.90;99.90
27759;DHT22;15148;48.972;12.794;2023-12-14T00:21:13;3.00;99.90
27759;DHT22;15148;48.972;12.794;2023-12-14T00:26:15;3.00;99.90
27759;DHT22;15148;48.972;12.794;2023-12-14T00:31:19;3.00;99.90
27759;DHT22;15148;48.972;12.794;2023-12-14T00:36:21;3.00;99.90
27759;DHT22;15148;48.972;12.794;2023-12-14T00:41:22;3.00;99.90
27759;DHT22;15148;48.972;12.794;2023-12-14T00:46:24;3.00;99.90
27759;DHT22;15148;48.972;12.794;2023-12-14T00:51:26;3.00;99.90
27759;DHT22;15148;48.972;12.794;2023-12-14T00:56:28;3.00;99.90
27759;DHT22;15148;48.972;12.794;2023-12-14T01:01:30;3.00;99.90
27759;DHT22;15148;48.972;12.794;2023-12-14T01:06:32;3.00;99.90
27759;DHT22;15148;48.972;12.794;2023-12-14T01:11:34;2.90;99.90
27759;DHT22;15148;48.972;12.794;2023-12-14T01:16:36;2.90;99.90
27759;DHT22;15148;48.972;12.794;2023-12-14T01:21:38;2.90;99.90
27759;DHT22;15148;48.972;12.794;2023-12-14T01:26:40;3.00;99.90
27759;DHT22;15148;48.972;12.794;2023-12-14T01:31:42;3.00;99.90
27759;DHT22;15148;48.972;12.794;2023-12-14T01:36:44;3.00;99.90
27759;DHT22;15148;48.972;12.794;2023-12-14T01:41:46;3.00;99.90
27759;DHT22;15148;48.972;12.794;2023-12-14T01:46:48;3.00;99.90
27759;DHT22;15148;48.972;12.794;2023-12-14T01:51:50;2.90;99.90
27759;DHT22;15148;48.972;12.794;2023-12-14T01:56:52;2.90;99.90
27759;DHT22;15148;48.972;12.794;2023-12-14T02:01:56;2.90;99.90
27759;DHT22;15148;48.972;12.794;2023-12-14T02:06:59;2.90;99.90
27759;DHT22;15148;48.972;12.794;2023-12-14T02:12:01;3.00;99.90
27759;DHT22;15148;48.972;12.794;2023-12-14T02:17:04;3.00;99.90
27759;DHT22;15148;48.972;12.794;2023-12-14T02:22:06;3.00;99.90
27759;DHT22;15148;48.972;12.794;2023-12-14T02:27:08;3.00;99.90
27759;DHT22;15148;48.972;12.794;2023-12-14T02:32:10;3.00;99.90
27759;DHT22;15148;48.972;12.794;2023-12-14T02:37:12;2.90;99.90
27759;DHT22;15148;48.972;12.794;2023-12-14T02:42:14;2.90;99.90
27759;DHT22;15148;48.972;12.794;2023-12-14T02:47:16;2.90;99.90
27759;DHT22;15148;48.972;12.794;2023-12-14T02:52:18;2.90;99.90
27759;DHT22;15148;48.972;12.794;2023-12-14T02:57:21;2.90;99.90
27759;DHT22;15148;48.972;12.794;2023-12-14T03:02:23;2.90;99.90
27759;DHT22;15148;48.972;12.794;2023-12-14T03:07:25;2.90;99.90
27759;DHT22;15148;48.972;12.794;2023-12-14T03:12:27;2.90;99.90
27759;DHT22;15148;48.972;12.794;2023-12-14T03:17:29;2.90;99.90
27759;DHT22;15148;48.972;12.794;2023-12-14T03:22:31;2.90;99.90
27759;DHT22;15148;48.972;12.794;2023-12-14T03:27:34;2.90;99.90
27759;DHT22;15148;48.972;12.794;2023-12-14T03:32:36;2.90;99.90
27759;DHT22;15148;48.972;12.794;2023-12-14T03:37:39;2.80;99.90
27759;DHT22;15148;48.972;12.794;2023-12-14T03:42:41;2.80;99.90
27759;DHT22;15148;48.972;12.794;2023-12-14T03:47:43;2.80;99.90
27759;DHT22;15148;48.972;12.794;2023-12-14T03:52:45;2.90;99.90
27759;DHT22;15148;48.972;12.794;2023-12-14T03:57:47;2.90;99.90
27759;DHT22;15148;48.972;12.794;2023-12-14T04:02:49;2.90;99.90
27759;DHT22;15148;48.972;12.794;2023-12-14T04:07:51;2.90;99.90
27759;DHT22;15148;48.972;12.794;2023-12-14T04:12:53;2.80;99.90
27759;DHT22;15148;48.972;12.794;2023-12-14T04:17:55;2.80;99.90
27759;DHT22;15148;48.972;12.794;2023-12-14T04:22:57;2.80;99.90
27759;DHT22;15148;48.972;12.794;2023-12-14T04:27:59;2.90;99.90
27759;DHT22;15148;48.972;12.794;2023-12-14T04:33:01;2.90;99.90
27759;DHT22;15148;48.972;12.794;2023-12-14T04:38:03;2.80;99.90
27759;DHT22;15148;48.972;12.794;2023-12-14T04:43:05;2.90;99.90
27759;DHT22;15148;48.972;12.794;2023-12-14T04:48:07;2.80;99.90
27759;DHT22;15148;48.972;12.794;2023-12-14T04:53:09;2.90;99.90
27759;DHT22;15148;48.972;12.794;2023-12-14T04:58:11;2.90;99.90
27759;DHT22;15148;48.972;12.794;2023-12-14T05:03:13;2.80;99.90
27759;DHT22;15148;48.972;12.794;2023-12-14T05:08:15;2.80;99.90
27759;DHT22;15148;48.972;12.794;2023-12-14T05:13:18;2.80;99.90
27759;DHT22;15148;48.972;12.794;2023-12-14T05:18:20;2.80;99.90
27759;DHT22;15148;48.972;12.794;2023-12-14T05:23:22;2.80;99.90
27759;DHT22;15148;48.972;12.794;2023-12-14T05:28:25;2.90;99.90
27759;DHT22;15148;48.972;12.794;2023-12-14T05:33:27;2.80;99.90
27759;DHT22;15148;48.972;12.794;2023-12-14T05:38:29;2.80;99.90
27759;DHT22;15148;48.972;12.794;2023-12-14T05:43:32;2.80;99.90
27759;DHT22;15148;48.972;12.794;2023-12-14T05:48:34;2.80;99.90
27759;DHT22;15148;48.972;12.794;2023-12-14T05:53:36;2.80;99.90
27759;DHT22;15148;48.972;12.794;2023-12-14T05:58:41;2.80;99.90
27759;DHT22;15148;48.972;12.794;2023-12-14T06:03:43;2.90;99.90
27759;DHT22;15148;48.972;12.794;2023-12-14T06:08:45;2.90;99.90
27759;DHT22;15148;48.972;12.794;2023-12-14T06:13:47;2.90;99.90
27759;DHT22;15148;48.972;12.794;2023-12-14T06:18:49;2.90;99.90
27759;DHT22;15148;48.972;12.794;2023-12-14T06:23:51;2.90;99.90
27759;DHT22;15148;48.972;12.794;2023-12-14T06:28:53;2.90;99.90
27759;DHT22;15148;48.972;12.794;2023-12-14T06:33:55;2.90;99.90
27759;DHT22;15148;48.972;12.794;2023-12-14T06:39:02;2.90;99.90
27759;DHT22;15148;48.972;12.794;2023-12-14T06:44:07;2.80;99.90
27759;DHT22;15148;48.972;12.794;2023-12-14T06:49:11;2.80;99.90
27759;DHT22;15148;48.972;12.794;2023-12-14T06:54:13;2.80;99.90
27759;DHT22;15148;48.972;12.794;2023-12-14T06:59:15;2.80;99.90
27759;DHT22;15148;48.972;12.794;2023-12-14T07:04:17;2.80;99.90
27759;DHT22;15148;48.972;12.794;2023-12-14T07:09:21;2.90;99.90
27759;DHT22;15148;48.972;12.794;2023-12-14T07:14:23;2.90;99.90
27759;DHT22;15148;48.972;12.794;2023-12-14T07:19:27;2.90;99.90
27759;DHT22;15148;48.972;12.794;2023-12-14T07:24:29;2.90;99.90
27759;DHT22;15148;48.972;12.794;2023-12-14T07:29:41;2.90;99.90
27759;DHT22;15148;48.972;12.794;2023-12-14T07:34:43;2.90;99.90
27759;DHT22;15148;48.972;12.794;2023-12-14T07:39:46;2.90;99.90
27759;DHT22;15148;48.972;12.794;2023-12-14T07:44:48;2.90;99.90
27759;DHT22;15148;48.972;12.794;2023-12-14T07:49:50;2.90;99.90
27759;DHT22;15148;48.972;12.794;2023-12-14T07:54:52;2.90;99.90
27759;DHT22;15148;48.972;12.794;2023-12-14T07:59:54;2.90;99.90
27759;DHT22;15148;48.972;12.794;2023-12-14T08:04:55;2.90;99.90
27759;DHT22;15148;48.972;12.794;2023-12-14T08:09:58;2.90;99.90
27759;DHT22;15148;48.972;12.794;2023-12-14T08:15:00;3.00;99.90
27759;DHT22;15148;48.972;12.794;2023-12-14T08:20:02;3.10;99.90
27759;DHT22;15148;48.972;12.794;2023-12-14T08:25:06;3.10;99.90
27759;DHT22;15148;48.972;12.794;2023-12-14T08:30:10;3.10;99.90
27759;DHT22;15148;48.972;12.794;2023-12-14T08:35:12;3.10;99.90
27759;DHT22;15148;48.972;12.794;2023-12-14T08:40:14;3.10;99.90
27759;DHT22;15148;48.972;12.794;2023-12-14T08:45:16;3.20;99.90
27759;DHT22;15148;48.972;12.794;2023-12-14T08:50:19;3.20;99.90
27759;DHT22;15148;48.972;12.794;2023-12-14T08:55:21;3.20;99.90
27759;DHT22;15148;48.972;12.794;2023-12-14T09:00:23;3.20;99.90
27759;DHT22;15148;48.972;12.794;2023-12-14T09:05:25;3.30;99.90
27759;DHT22;15148;48.972;12.794;2023-12-14T09:10:28;3.30;99.90
27759;DHT22;15148;48.972;12.794;2023-12-14T09:15:34;3.30;99.90
27759;DHT22;15148;48.972;12.794;2023-12-14T09:20:36;3.40;99.90
27759;DHT22;15148;48.972;12.794;2023-12-14T09:25:39;3.40;99.90
27759;DHT22;15148;48.972;12.794;2023-12-14T09:30:41;3.50;99.90
27759;DHT22;15148;48.972;12.794;2023-12-14T09:35:43;3.60;99.90
27759;DHT22;15148;48.972;12.794;2023-12-14T09:40:45;3.60;99.90
27759;DHT22;15148;48.972;12.794;2023-12-14T09:45:47;3.70;99.90
27759;DHT22;15148;48.972;12.794;2023-12-14T09:50:50;3.70;99.90
27759;DHT22;15148;48.972;12.794;2023-12-14T09:55:53;3.80;99.90
27759;DHT22;15148;48.972;12.794;2023-12-14T10:00:55;3.90;99.90
27759;DHT22;15148;48.972;12.794;2023-12-14T10:05:59;3.90;99.90
27759;DHT22;15148;48.972;12.794;2023-12-14T10:11:17;3.90;99.90
27759;DHT22;15148;48.972;12.794;2023-12-14T10:16:30;3.90;99.90
27759;DHT22;15148;48.972;12.794;2023-12-14T10:21:33;3.90;99.90
27759;DHT22;15148;48.972;12.794;2023-12-14T10:26:36;3.90;99.90
27759;DHT22;15148;48.972;12.794;2023-12-14T10:31:38;3.90;99.90
27759;DHT22;15148;48.972;12.794;2023-12-14T10:36:42;4.00;99.90
27759;DHT22;15148;48.972;12.794;2023-12-14T10:41:47;4.00;99.90
27759;DHT22;15148;48.972;12.794;2023-12-14T10:47:02;4.00;99.90
27759;DHT22;15148;48.972;12.794;2023-12-14T10:52:06;3.90;99.90
27759;DHT22;15148;48.972;12.794;2023-12-14T10:57:08;3.80;99.90
27759;DHT22;15148;48.972;12.794;2023-12-14T11:02:11;3.80;99.90
27759;DHT22;15148;48.972;12.794;2023-12-14T11:07:15;3.80;99.90
27759;DHT22;15148;48.972;12.794;2023-12-14T11:12:19;3.80;99.90
27759;DHT22;15148;48.972;12.794;2023-12-14T11:17:22;3.80;99.90
27759;DHT22;15148;48.972;12.794;2023-12-14T11:22:26;3.80;99.90
27759;DHT22;15148;48.972;12.794;2023-12-14T11:27:29;3.90;99.90
27759;DHT22;15148;48.972;12.794;2023-12-14T11:32:32;3.90;99.90
27759;DHT22;15148;48.972;12.794;2023-12-14T11:37:34;3.90;99.90
27759;DHT22;15148;48.972;12.794;2023-12-14T11:42:38;3.90;99.90
27759;DHT22;15148;48.972;12.794;2023-12-14T11:47:40;3.90;99.90
27759;DHT22;15148;48.972;12.794;2023-12-14T11:52:43;3.90;99.90
27759;DHT22;15148;48.972;12.794;2023-12-14T11:57:49;3.90;99.90
27759;DHT22;15148;48.972;12.794;2023-12-14T12:02:51;4.00;99.90
27759;DHT22;15148;48.972;12.794;2023-12-14T12:07:57;4.00;99.90
27759;DHT22;15148;48.972;12.794;2023-12-14T12:13:03;4.00;99.90
27759;DHT22;15148;48.972;12.794;2023-12-14T12:18:09;4.00;99.90
27759;DHT22;15148;48.972;12.794;2023-12-14T12:23:12;4.00;99.90
27759;DHT22;15148;48.972;12.794;2023-12-14T12:28:15;4.10;99.90
27759;DHT22;15148;48.972;12.794;2023-12-14T12:33:23;4.10;99.90
27759;DHT22;15148;48.972;12.794;2023-12-14T12:38:25;4.20;99.90
27759;DHT22;15148;48.972;12.794;2023-12-14T12:43:28;4.20;99.90
27759;DHT22;15148;48.972;12.794;2023-12-14T12:48:30;4.30;99.90
27759;DHT22;15148;48.972;12.794;2023-12-14T12:53:33;4.30;99.90
27759;DHT22;15148;48.972;12.794;2023-12-14T12:58:35;4.20;99.90
27759;DHT22;15148;48.972;12.794;2023-12-14T13:03:37;4.20;99.90
27759;DHT22;15148;48.972;12.794;2023-12-14T13:08:39;4.20;99.90
27759;DHT22;15148;48.972;12.794;2023-12-14T13:13:41;4.30;99.90
27759;DHT22;15148;48.972;12.794;2023-12-14T13:18:43;4.20;99.90
27759;DHT22;15148;48.972;12.794;2023-12-14T13:23:47;4.20;99.90
27759;DHT22;15148;48.972;12.794;2023-12-14T13:28:51;4.20;99.90
27759;DHT22;15148;48.972;12.794;2023-12-14T13:33:53;4.10;99.90
27759;DHT22;15148;48.972;12.794;2023-12-14T13:38:55;4.10;99.90
27759;DHT22;15148;48.972;12.794;2023-12-14T13:43:58;4.00;99.90
27759;DHT22;15148;48.972;12.794;2023-12-14T13:49:00;4.00;99.90
27759;DHT22;15148;48.972;12.794;2023-12-14T13:54:02;3.90;99.90
27759;DHT22;15148;48.972;12.794;2023-12-14T13:59:04;3.90;99.90
27759;DHT22;15148;48.972;12.794;2023-12-14T14:04:06;3.90;99.90
27759;DHT22;15148;48.972;12.794;2023-12-14T14:09:08;3.80;99.90
27759;DHT22;15148;48.972;12.794;2023-12-14T14:14:10;3.80;99.90
27759;DHT22;15148;48.972;12.794;2023-12-14T14:19:13;3.80;99.90
27759;DHT22;15148;48.972;12.794;2023-12-14T14:24:15;3.70;99.90
27759;DHT22;15148;48.972;12.794;2023-12-14T14:29:16;3.70;99.90
27759;DHT22;15148;48.972;12.794;2023-12-14T14:34:20;3.70;99.90
27759;DHT22;15148;48.972;12.794;2023-12-14T14:39:26;3.60;99.90
27759;DHT22;15148;48.972;12.794;2023-12-14T14:44:28;3.70;99.90
27759;DHT22;15148;48.972;12.794;2023-12-14T14:49:30;3.70;99.90
27759;DHT22;15148;48.972;12.794;2023-12-14T14:54:32;3.70;99.90
27759;DHT22;15148;48.972;12.794;2023-12-14T14:59:34;3.70;99.90
27759;DHT22;15148;48.972;12.794;2023-12-14T15:04:35;3.70;99.90
27759;DHT22;15148;48.972;12.794;2023-12-14T15:09:37;3.70;99.90
27759;DHT22;15148;48.972;12.794;2023-12-14T15:14:39;3.70;99.90
27759;DHT22;15148;48.972;12.794;2023-12-14T15:19:41;3.70;99.90
27759;DHT22;15148;48.972;12.794;2023-12-14T15:24:43;3.70;99.90
27759;DHT22;15148;48.972;12.794;2023-12-14T15:29:45;3.60;99.90
27759;DHT22;15148;48.972;12.794;2023-12-14T15:34:47;3.60;99.90
27759;DHT22;15148;48.972;12.794;2023-12-14T15:39:51;3.60;99.90
27759;DHT22;15148;48.972;12.794;2023-12-14T15:44:55;3.60;99.90
27759;DHT22;15148;48.972;12.794;2023-12-14T15:49:57;3.50;99.90
27759;DHT22;15148;48.972;12.794;2023-12-14T15:54:59;3.50;99.90
27759;DHT22;15148;48.972;12.794;2023-12-14T16:00:02;3.50;99.90
27759;DHT22;15148;48.972;12.794;2023-12-14T16:05:08;3.40;99.90
27759;DHT22;15148;48.972;12.794;2023-12-14T16:10:10;3.40;99.90
27759;DHT22;15148;48.972;12.794;2023-12-14T16:15:12;3.40;99.90
27759;DHT22;15148;48.972;12.794;2023-12-14T16:20:14;3.40;99.90
27759;DHT22;15148;48.972;12.794;2023-12-14T16:25:18;3.40;99.90
27759;DHT22;15148;48.972;12.794;2023-12-14T16:30:20;3.40;99.90
27759;DHT22;15148;48.972;12.794;2023-12-14T16:35:22;3.40;99.90
27759;DHT22;15148;48.972;12.794;2023-12-14T16:40:24;3.40;99.90
27759;DHT22;15148;48.972;12.794;2023-12-14T16:45:26;3.40;99.90
27759;DHT22;15148;48.972;12.794;2023-12-14T16:50:28;3.40;99.90
27759;DHT22;15148;48.972;12.794;2023-12-14T16:55:30;3.40;99.90
27759;DHT22;15148;48.972;12.794;2023-12-14T17:00:32;3.40;99.90
27759;DHT22;15148;48.972;12.794;2023-12-14T17:05:34;3.40;99.90
27759;DHT22;15148;48.972;12.794;2023-12-14T17:10:36;3.40;99.90
27759;DHT22;15148;48.972;12.794;2023-12-14T17:15:38;3.30;99.90
27759;DHT22;15148;48.972;12.794;2023-12-14T17:20:40;3.30;99.90
27759;DHT22;15148;48.972;12.794;2023-12-14T17:25:43;3.30;99.90
27759;DHT22;15148;48.972;12.794;2023-12-14T17:30:44;3.30;99.90
27759;DHT22;15148;48.972;12.794;2023-12-14T17:35:46;3.30;99.90
27759;DHT22;15148;48.972;12.794;2023-12-14T17:40:49;3.30;99.90
27759;DHT22;15148;48.972;12.794;2023-12-14T17:45:51;3.30;99.90
27759;DHT22;15148;48.972;12.794;2023-12-14T17:50:53;3.30;99.90
27759;DHT22;15148;48.972;12.794;2023-12-14T17:55:58;3.30;99.90
27759;DHT22;15148;48.972;12.794;2023-12-14T18:01:00;3.30;99.90
27759;DHT22;15148;48.972;12.794;2023-12-14T18:06:07;3.30;99.90
27759;DHT22;15148;48.972;12.794;2023-12-14T18:11:09;3.30;99.90
27759;DHT22;15148;48.972;12.794;2023-12-14T18:16:12;3.30;99.90
27759;DHT22;15148;48.972;12.794;2023-12-14T18:21:14;3.30;99.90
27759;DHT22;15148;48.972;12.794;2023-12-14T18:26:16;3.30;99.90
27759;DHT22;15148;48.972;12.794;2023-12-14T18:31:18;3.30;99.90
27759;DHT22;15148;48.972;12.794;2023-12-14T18:36:21;3.30;99.90
27759;DHT22;15148;48.972;12.794;2023-12-14T18:41:23;3.30;99.90
27759;DHT22;15148;48.972;12.794;2023-12-14T18:46:26;3.30;99.90
27759;DHT22;15148;48.972;12.794;2023-12-14T18:51:28;3.30;99.90
27759;DHT22;15148;48.972;12.794;2023-12-14T18:56:30;3.40;99.90
27759;DHT22;15148;48.972;12.794;2023-12-14T19:01:33;3.40;99.90
27759;DHT22;15148;48.972;12.794;2023-12-14T19:06:36;3.40;99.90
27759;DHT22;15148;48.972;12.794;2023-12-14T19:11:38;3.40;99.90
27759;DHT22;15148;48.972;12.794;2023-12-14T19:16:40;3.40;99.90
27759;DHT22;15148;48.972;12.794;2023-12-14T19:21:42;3.30;99.90
27759;DHT22;15148;48.972;12.794;2023-12-14T19:26:46;3.30;99.90
27759;DHT22;15148;48.972;12.794;2023-12-14T19:31:48;3.30;99.90
27759;DHT22;15148;48.972;12.794;2023-12-14T19:36:50;3.30;99.90
27759;DHT22;15148;48.972;12.794;2023-12-14T19:41:52;3.30;99.90
27759;DHT22;15148;48.972;12.794;2023-12-14T19:46:54;3.30;99.90
27759;DHT22;15148;48.972;12.794;2023-12-14T19:51:56;3.30;99.90
27759;DHT22;15148;48.972;12.794;2023-12-14T19:56:58;3.30;99.90
27759;DHT22;15148;48.972;12.794;2023-12-14T20:02:00;3.30;99.90
27759;DHT22;15148;48.972;12.794;2023-12-14T20:07:02;3.30;99.90
27759;DHT22;15148;48.972;12.794;2023-12-14T20:12:05;3.30;99.90
27759;DHT22;15148;48.972;12.794;2023-12-14T20:17:07;3.40;99.90
27759;DHT22;15148;48.972;12.794;2023-12-14T20:22:09;3.40;99.90
27759;DHT22;15148;48.972;12.794;2023-12-14T20:27:11;3.40;99.90
27759;DHT22;15148;48.972;12.794;2023-12-14T20:32:13;3.40;99.90
27759;DHT22;15148;48.972;12.794;2023-12-14T20:37:15;3.40;99.90
27759;DHT22;15148;48.972;12.794;2023-12-14T20:42:17;3.40;99.90
27759;DHT22;15148;48.972;12.794;2023-12-14T20:47:19;3.40;99.90
27759;DHT22;15148;48.972;12.794;2023-12-14T20:52:21;3.50;99.90
27759;DHT22;15148;48.972;12.794;2023-12-14T20:57:23;3.50;99.90
27759;DHT22;15148;48.972;12.794;2023-12-14T21:02:25;3.50;99.90
27759;DHT22;15148;48.972;12.794;2023-12-14T21:07:27;3.50;99.90
27759;DHT22;15148;48.972;12.794;2023-12-14T21:12:29;3.50;99.90
27759;DHT22;15148;48.972;12.794;2023-12-14T21:17:32;3.50;99.90
27759;DHT22;15148;48.972;12.794;2023-12-14T21:22:34;3.60;99.90
27759;DHT22;15148;48.972;12.794;2023-12-14T21:27:37;3.60;99.90
27759;DHT22;15148;48.972;12.794;2023-12-14T21:32:51;3.60;99.90
27759;DHT22;15148;48.972;12.794;2023-12-14T21:37:53;3.60;99.90
27759;DHT22;15148;48.972;12.794;2023-12-14T21:42:55;3.50;99.90
27759;DHT22;15148;48.972;12.794;2023-12-14T21:47:57;3.60;99.90
27759;DHT22;15148;48.972;12.794;2023-12-14T21:52:59;3.60;99.90
27759;DHT22;15148;48.972;12.794;2023-12-14T21:58:01;3.60;99.90
27759;DHT22;15148;48.972;12.794;2023-12-14T22:03:03;3.60;99.90
27759;DHT22;15148;48.972;12.794;2023-12-14T22:08:05;3.60;99.90
27759;DHT22;15148;48.972;12.794;2023-12-14T22:13:07;3.60;99.90
27759;DHT22;15148;48.972;12.794;2023-12-14T22:18:09;3.60;99.90
27759;DHT22;15148;48.972;12.794;2023-12-14T22:23:11;3.60;99.90
27759;DHT22;15148;48.972;12.794;2023-12-14T22:28:13;3.60;99.90
27759;DHT22;15148;48.972;12.794;2023-12-14T22:33:15;3.50;99.90
27759;DHT22;15148;48.972;12.794;2023-12-14T22:38:19;3.50;99.90
27759;DHT22;15148;48.972;12.794;2023-12-14T22:43:22;3.50;99.90
27759;DHT22;15148;48.972;12.794;2023-12-14T22:48:24;3.30;99.90
27759;DHT22;15148;48.972;12.794;2023-12-14T22:53:26;3.20;99.90
27759;DHT22;15148;48.972;12.794;2023-12-14T22:58:30;3.10;99.90
27759;DHT22;15148;48.972;12.794;2023-12-14T23:03:32;3.00;99.90
27759;DHT22;15148;48.972;12.794;2023-12-14T23:08:34;2.90;99.90
27759;DHT22;15148;48.972;12.794;2023-12-14T23:13:36;2.70;99.90
27759;DHT22;15148;48.972;12.794;2023-12-14T23:18:38;2.70;99.90
27759;DHT22;15148;48.972;12.794;2023-12-14T23:23:40;2.70;99.90
27759;DHT22;15148;48.972;12.794;2023-12-14T23:28:42;2.60;99.90
27759;DHT22;15148;48.972;12.794;2023-12-14T23:33:44;2.50;99.90
27759;DHT22;15148;48.972;12.794;2023-12-14T23:38:46;2.40;99.90
27759;DHT22;15148;48.972;12.794;2023-12-14T23:43:48;2.40;99.90
27759;DHT22;15148;48.972;12.794;2023-12-14T23:48:50;2.40;99.90
27759;DHT22;15148;48.972;12.794;2023-12-14T23:53:55;2.50;99.90
27759;DHT22;15148;48.972;12.794;2023-12-14T23:58:56;2.50;99.90
